sensor_id;sensor_type;location;lat;lon;timestamp;temperature;humidity
8002;DHT22;4046;48.774;8.732;2023-03-03T00:00:47;19.90;68.90
8002;DHT22;4046;48.774;8.732;2023-03-03T00:03:21;19.90;68.90
8002;DHT22;4046;48.774;8.732;2023-03-03T00:05:49;19.90;68.80
8002;DHT22;4046;48.774;8.732;2023-03-03T00:08:18;20.00;69.00
8002;DHT22;4046;48.774;8.732;2023-03-03T00:10:45;20.00;68.90
8002;DHT22;4046;48.774;8.732;2023-03-03T00:13:15;19.90;68.80
8002;DHT22;4046;48.774;8.732;2023-03-03T00:15:41;19.90;68.80
8002;DHT22;4046;48.774;8.732;2023-03-03T00:18:25;19.90;68.80
8002;DHT22;4046;48.774;8.732;2023-03-03T00:20:56;19.90;68.80
8002;DHT22;4046;48.774;8.732;2023-03-03T00:23:36;19.90;68.90
8002;DHT22;4046;48.774;8.732;2023-03-03T00:26:20;19.90;68.90
8002;DHT22;4046;48.774;8.732;2023-03-03T00:28:51;19.90;68.80
8002;DHT22;4046;48.774;8.732;2023-03-03T00:31:28;19.90;68.90
8002;DHT22;4046;48.774;8.732;2023-03-03T00:36:42;19.90;68.90
8002;DHT22;4046;48.774;8.732;2023-03-03T00:39:32;19.90;68.80
8002;DHT22;4046;48.774;8.732;2023-03-03T00:42:00;19.90;68.90
8002;DHT22;4046;48.774;8.732;2023-03-03T00:47:11;19.90;68.90
8002;DHT22;4046;48.774;8.732;2023-03-03T00:49:39;19.90;68.80
8002;DHT22;4046;48.774;8.732;2023-03-03T00:52:13;19.90;68.80
8002;DHT22;4046;48.774;8.732;2023-03-03T00:54:40;19.90;68.80
8002;DHT22;4046;48.774;8.732;2023-03-03T00:57:07;19.90;68.80
8002;DHT22;4046;48.774;8.732;2023-03-03T00:59:33;19.90;68.80
8002;DHT22;4046;48.774;8.732;2023-03-03T01:01:59;19.90;68.80
8002;DHT22;4046;48.774;8.732;2023-03-03T01:04:25;20.00;68.90
8002;DHT22;4046;48.774;8.732;2023-03-03T01:06:52;19.90;68.70
8002;DHT22;4046;48.774;8.732;2023-03-03T01:09:18;19.90;68.80
8002;DHT22;4046;48.774;8.732;2023-03-03T01:11:44;19.90;68.70
8002;DHT22;4046;48.774;8.732;2023-03-03T01:14:11;19.90;68.80
8002;DHT22;4046;48.774;8.732;2023-03-03T01:16:37;19.90;68.80
8002;DHT22;4046;48.774;8.732;2023-03-03T01:19:04;19.90;68.70
8002;DHT22;4046;48.774;8.732;2023-03-03T01:21:30;19.90;68.70
8002;DHT22;4046;48.774;8.732;2023-03-03T01:23:56;19.90;68.70
8002;DHT22;4046;48.774;8.732;2023-03-03T01:26:22;19.90;68.70
8002;DHT22;4046;48.774;8.732;2023-03-03T01:28:48;19.90;68.70
8002;DHT22;4046;48.774;8.732;2023-03-03T01:31:15;19.90;68.70
8002;DHT22;4046;48.774;8.732;2023-03-03T01:33:41;19.90;68.70
8002;DHT22;4046;48.774;8.732;2023-03-03T01:36:08;19.90;68.70
8002;DHT22;4046;48.774;8.732;2023-03-03T01:38:35;19.90;68.70
8002;DHT22;4046;48.774;8.732;2023-03-03T01:41:02;19.90;68.70
8002;DHT22;4046;48.774;8.732;2023-03-03T01:43:30;19.90;68.70
8002;DHT22;4046;48.774;8.732;2023-03-03T01:48:39;19.90;68.70
8002;DHT22;4046;48.774;8.732;2023-03-03T01:51:22;19.90;68.70
8002;DHT22;4046;48.774;8.732;2023-03-03T01:53:51;19.90;68.60
8002;DHT22;4046;48.774;8.732;2023-03-03T01:56:18;19.90;68.60
8002;DHT22;4046;48.774;8.732;2023-03-03T01:58:48;19.90;68.60
8002;DHT22;4046;48.774;8.732;2023-03-03T02:01:18;19.90;68.60
8002;DHT22;4046;48.774;8.732;2023-03-03T02:03:45;19.90;68.60
8002;DHT22;4046;48.774;8.732;2023-03-03T02:06:14;19.90;68.60
8002;DHT22;4046;48.774;8.732;2023-03-03T02:08:59;19.90;68.60
8002;DHT22;4046;48.774;8.732;2023-03-03T02:11:29;19.90;68.70
8002;DHT22;4046;48.774;8.732;2023-03-03T02:13:56;19.90;68.60
8002;DHT22;4046;48.774;8.732;2023-03-03T02:16:22;19.90;68.60
8002;DHT22;4046;48.774;8.732;2023-03-03T02:18:48;19.90;68.60
8002;DHT22;4046;48.774;8.732;2023-03-03T02:21:18;19.90;68.50
8002;DHT22;4046;48.774;8.732;2023-03-03T02:24:17;19.90;68.60
8002;DHT22;4046;48.774;8.732;2023-03-03T02:26:46;19.90;68.60
8002;DHT22;4046;48.774;8.732;2023-03-03T02:29:13;19.90;68.60
8002;DHT22;4046;48.774;8.732;2023-03-03T02:31:40;19.90;68.60
8002;DHT22;4046;48.774;8.732;2023-03-03T02:34:06;19.90;68.50
8002;DHT22;4046;48.774;8.732;2023-03-03T02:36:37;19.90;68.50
8002;DHT22;4046;48.774;8.732;2023-03-03T02:39:16;19.90;68.50
8002;DHT22;4046;48.774;8.732;2023-03-03T02:44:23;19.90;68.50
8002;DHT22;4046;48.774;8.732;2023-03-03T02:46:51;19.90;68.50
8002;DHT22;4046;48.774;8.732;2023-03-03T02:49:21;19.90;68.50
8002;DHT22;4046;48.774;8.732;2023-03-03T02:51:48;19.90;68.50
8002;DHT22;4046;48.774;8.732;2023-03-03T02:54:16;19.90;68.50
8002;DHT22;4046;48.774;8.732;2023-03-03T02:56:43;19.90;68.50
8002;DHT22;4046;48.774;8.732;2023-03-03T02:59:10;19.90;68.50
8002;DHT22;4046;48.774;8.732;2023-03-03T03:01:37;19.90;68.50
8002;DHT22;4046;48.774;8.732;2023-03-03T03:04:21;19.90;68.50
8002;DHT22;4046;48.774;8.732;2023-03-03T03:06:48;19.90;68.50
8002;DHT22;4046;48.774;8.732;2023-03-03T03:09:16;19.90;68.50
8002;DHT22;4046;48.774;8.732;2023-03-03T03:11:42;19.90;68.40
8002;DHT22;4046;48.774;8.732;2023-03-03T03:14:10;19.90;68.50
8002;DHT22;4046;48.774;8.732;2023-03-03T03:16:37;19.90;68.50
8002;DHT22;4046;48.774;8.732;2023-03-03T03:19:04;19.90;68.50
8002;DHT22;4046;48.774;8.732;2023-03-03T03:21:30;19.90;68.40
8002;DHT22;4046;48.774;8.732;2023-03-03T03:23:57;19.90;68.40
8002;DHT22;4046;48.774;8.732;2023-03-03T03:26:23;19.90;68.40
8002;DHT22;4046;48.774;8.732;2023-03-03T03:28:50;19.90;68.40
8002;DHT22;4046;48.774;8.732;2023-03-03T03:31:17;19.90;68.40
8002;DHT22;4046;48.774;8.732;2023-03-03T03:33:43;19.90;68.40
8002;DHT22;4046;48.774;8.732;2023-03-03T03:36:10;19.90;68.40
8002;DHT22;4046;48.774;8.732;2023-03-03T03:38:37;19.90;68.40
8002;DHT22;4046;48.774;8.732;2023-03-03T03:41:04;19.80;68.20
8002;DHT22;4046;48.774;8.732;2023-03-03T03:43:31;19.90;68.30
8002;DHT22;4046;48.774;8.732;2023-03-03T03:45:57;19.90;68.30
8002;DHT22;4046;48.774;8.732;2023-03-03T03:48:24;19.90;68.30
8002;DHT22;4046;48.774;8.732;2023-03-03T03:50:50;19.90;68.30
8002;DHT22;4046;48.774;8.732;2023-03-03T03:53:17;19.90;68.30
8002;DHT22;4046;48.774;8.732;2023-03-03T03:55:44;19.90;68.30
8002;DHT22;4046;48.774;8.732;2023-03-03T03:58:14;19.90;68.30
8002;DHT22;4046;48.774;8.732;2023-03-03T04:00:43;19.90;68.30
8002;DHT22;4046;48.774;8.732;2023-03-03T04:03:09;19.90;68.30
8002;DHT22;4046;48.774;8.732;2023-03-03T04:05:36;19.90;68.30
8002;DHT22;4046;48.774;8.732;2023-03-03T04:08:03;19.80;68.20
8002;DHT22;4046;48.774;8.732;2023-03-03T04:10:29;19.90;68.30
8002;DHT22;4046;48.774;8.732;2023-03-03T04:12:55;19.90;68.30
8002;DHT22;4046;48.774;8.732;2023-03-03T04:15:21;19.80;68.20
8002;DHT22;4046;48.774;8.732;2023-03-03T04:17:47;19.90;68.20
8002;DHT22;4046;48.774;8.732;2023-03-03T04:20:14;19.90;68.30
8002;DHT22;4046;48.774;8.732;2023-03-03T04:22:42;19.90;68.30
8002;DHT22;4046;48.774;8.732;2023-03-03T04:25:12;19.90;68.30
8002;DHT22;4046;48.774;8.732;2023-03-03T04:27:39;19.90;68.20
8002;DHT22;4046;48.774;8.732;2023-03-03T04:30:06;19.90;68.30
8002;DHT22;4046;48.774;8.732;2023-03-03T04:32:33;19.80;68.20
8002;DHT22;4046;48.774;8.732;2023-03-03T04:35:00;19.90;68.30
8002;DHT22;4046;48.774;8.732;2023-03-03T04:37:26;19.90;68.20
8002;DHT22;4046;48.774;8.732;2023-03-03T04:39:52;19.90;68.20
8002;DHT22;4046;48.774;8.732;2023-03-03T04:42:19;19.90;68.20
8002;DHT22;4046;48.774;8.732;2023-03-03T04:44:45;19.90;68.20
8002;DHT22;4046;48.774;8.732;2023-03-03T04:47:11;19.90;68.20
8002;DHT22;4046;48.774;8.732;2023-03-03T04:49:37;19.90;68.20
8002;DHT22;4046;48.774;8.732;2023-03-03T04:52:04;19.90;68.20
8002;DHT22;4046;48.774;8.732;2023-03-03T04:54:30;19.90;68.20
8002;DHT22;4046;48.774;8.732;2023-03-03T04:56:56;19.90;68.20
8002;DHT22;4046;48.774;8.732;2023-03-03T04:59:23;19.90;68.20
8002;DHT22;4046;48.774;8.732;2023-03-03T05:01:49;19.90;68.10
8002;DHT22;4046;48.774;8.732;2023-03-03T05:04:16;19.90;68.20
8002;DHT22;4046;48.774;8.732;2023-03-03T05:06:42;19.90;68.10
8002;DHT22;4046;48.774;8.732;2023-03-03T05:09:08;19.90;68.10
8002;DHT22;4046;48.774;8.732;2023-03-03T05:11:35;19.90;68.20
8002;DHT22;4046;48.774;8.732;2023-03-03T05:14:01;19.90;68.10
8002;DHT22;4046;48.774;8.732;2023-03-03T05:16:28;19.90;68.10
8002;DHT22;4046;48.774;8.732;2023-03-03T05:18:54;19.90;68.10
8002;DHT22;4046;48.774;8.732;2023-03-03T05:21:21;19.90;68.10
8002;DHT22;4046;48.774;8.732;2023-03-03T05:23:47;19.90;68.10
8002;DHT22;4046;48.774;8.732;2023-03-03T05:26:13;19.90;68.20
8002;DHT22;4046;48.774;8.732;2023-03-03T05:28:40;19.90;68.20
8002;DHT22;4046;48.774;8.732;2023-03-03T05:31:06;19.90;68.20
8002;DHT22;4046;48.774;8.732;2023-03-03T05:33:32;19.90;68.10
8002;DHT22;4046;48.774;8.732;2023-03-03T05:35:58;19.90;68.10
8002;DHT22;4046;48.774;8.732;2023-03-03T05:38:24;19.90;68.20
8002;DHT22;4046;48.774;8.732;2023-03-03T05:40:51;19.90;68.10
8002;DHT22;4046;48.774;8.732;2023-03-03T05:43:17;19.90;68.20
8002;DHT22;4046;48.774;8.732;2023-03-03T05:45:43;19.90;68.10
8002;DHT22;4046;48.774;8.732;2023-03-03T05:48:09;19.80;68.00
8002;DHT22;4046;48.774;8.732;2023-03-03T05:50:37;19.90;68.20
8002;DHT22;4046;48.774;8.732;2023-03-03T05:53:03;19.90;68.10
8002;DHT22;4046;48.774;8.732;2023-03-03T05:55:30;19.90;68.10
8002;DHT22;4046;48.774;8.732;2023-03-03T05:57:56;19.90;68.20
8002;DHT22;4046;48.774;8.732;2023-03-03T06:00:22;19.80;68.10
8002;DHT22;4046;48.774;8.732;2023-03-03T06:02:48;19.80;68.10
8002;DHT22;4046;48.774;8.732;2023-03-03T06:05:15;19.80;68.10
8002;DHT22;4046;48.774;8.732;2023-03-03T06:07:41;19.80;68.10
8002;DHT22;4046;48.774;8.732;2023-03-03T06:10:07;19.80;68.10
8002;DHT22;4046;48.774;8.732;2023-03-03T06:12:34;19.90;68.10
8002;DHT22;4046;48.774;8.732;2023-03-03T06:15:00;19.90;68.10
8002;DHT22;4046;48.774;8.732;2023-03-03T06:17:26;19.80;68.10
8002;DHT22;4046;48.774;8.732;2023-03-03T06:19:52;19.90;68.10
8002;DHT22;4046;48.774;8.732;2023-03-03T06:22:19;19.90;68.10
8002;DHT22;4046;48.774;8.732;2023-03-03T06:24:45;19.90;68.10
8002;DHT22;4046;48.774;8.732;2023-03-03T06:27:11;19.80;68.00
8002;DHT22;4046;48.774;8.732;2023-03-03T06:29:37;19.80;68.10
8002;DHT22;4046;48.774;8.732;2023-03-03T06:32:04;19.90;68.90
8002;DHT22;4046;48.774;8.732;2023-03-03T06:34:30;19.90;68.10
8002;DHT22;4046;48.774;8.732;2023-03-03T06:36:57;19.80;68.10
8002;DHT22;4046;48.774;8.732;2023-03-03T06:39:23;19.90;68.10
8002;DHT22;4046;48.774;8.732;2023-03-03T06:41:49;19.90;68.10
8002;DHT22;4046;48.774;8.732;2023-03-03T06:44:16;19.80;68.00
8002;DHT22;4046;48.774;8.732;2023-03-03T06:46:42;19.90;68.10
8002;DHT22;4046;48.774;8.732;2023-03-03T06:49:08;19.90;68.00
8002;DHT22;4046;48.774;8.732;2023-03-03T06:51:37;19.90;68.00
8002;DHT22;4046;48.774;8.732;2023-03-03T06:54:16;19.90;68.00
8002;DHT22;4046;48.774;8.732;2023-03-03T06:56:44;19.90;68.10
8002;DHT22;4046;48.774;8.732;2023-03-03T06:59:16;19.90;68.10
8002;DHT22;4046;48.774;8.732;2023-03-03T07:01:43;19.90;68.40
8002;DHT22;4046;48.774;8.732;2023-03-03T07:04:31;19.80;68.70
8002;DHT22;4046;48.774;8.732;2023-03-03T07:07:20;19.80;69.00
8002;DHT22;4046;48.774;8.732;2023-03-03T07:09:50;19.80;69.00
8002;DHT22;4046;48.774;8.732;2023-03-03T07:12:28;19.80;69.20
8002;DHT22;4046;48.774;8.732;2023-03-03T07:17:42;19.80;69.30
8002;DHT22;4046;48.774;8.732;2023-03-03T07:22:47;19.80;69.40
8002;DHT22;4046;48.774;8.732;2023-03-03T07:25:39;19.80;69.50
8002;DHT22;4046;48.774;8.732;2023-03-03T07:30:50;19.80;69.50
8002;DHT22;4046;48.774;8.732;2023-03-03T07:33:30;19.80;69.50
8002;DHT22;4046;48.774;8.732;2023-03-03T07:36:01;19.80;69.60
8002;DHT22;4046;48.774;8.732;2023-03-03T07:41:01;19.80;69.60
8002;DHT22;4046;48.774;8.732;2023-03-03T07:46:16;19.80;69.70
8002;DHT22;4046;48.774;8.732;2023-03-03T07:48:46;19.80;69.60
8002;DHT22;4046;48.774;8.732;2023-03-03T07:51:19;19.80;69.80
8002;DHT22;4046;48.774;8.732;2023-03-03T07:53:48;19.80;69.70
8002;DHT22;4046;48.774;8.732;2023-03-03T07:56:29;19.80;69.80
8002;DHT22;4046;48.774;8.732;2023-03-03T07:58:56;19.70;70.60
8002;DHT22;4046;48.774;8.732;2023-03-03T08:01:41;19.70;69.90
8002;DHT22;4046;48.774;8.732;2023-03-03T08:04:16;19.70;69.80
8002;DHT22;4046;48.774;8.732;2023-03-03T08:06:47;19.70;69.60
8002;DHT22;4046;48.774;8.732;2023-03-03T08:14:36;19.60;69.30
8002;DHT22;4046;48.774;8.732;2023-03-03T08:17:35;19.60;69.30
8002;DHT22;4046;48.774;8.732;2023-03-03T08:23:09;19.60;69.20
8002;DHT22;4046;48.774;8.732;2023-03-03T08:25:35;19.60;69.20
8002;DHT22;4046;48.774;8.732;2023-03-03T08:28:02;19.60;69.10
8002;DHT22;4046;48.774;8.732;2023-03-03T08:30:28;19.60;69.20
8002;DHT22;4046;48.774;8.732;2023-03-03T08:32:55;19.60;69.10
8002;DHT22;4046;48.774;8.732;2023-03-03T08:35:21;19.60;69.10
8002;DHT22;4046;48.774;8.732;2023-03-03T08:37:48;19.60;69.10
8002;DHT22;4046;48.774;8.732;2023-03-03T08:40:14;19.50;69.00
8002;DHT22;4046;48.774;8.732;2023-03-03T08:42:41;19.60;69.10
8002;DHT22;4046;48.774;8.732;2023-03-03T08:45:07;19.60;69.10
8002;DHT22;4046;48.774;8.732;2023-03-03T08:47:33;19.60;69.40
8002;DHT22;4046;48.774;8.732;2023-03-03T08:50:00;19.50;69.30
8002;DHT22;4046;48.774;8.732;2023-03-03T08:52:26;19.70;69.60
8002;DHT22;4046;48.774;8.732;2023-03-03T08:54:52;19.70;69.70
8002;DHT22;4046;48.774;8.732;2023-03-03T08:57:19;19.70;69.60
8002;DHT22;4046;48.774;8.732;2023-03-03T08:59:45;19.70;69.60
8002;DHT22;4046;48.774;8.732;2023-03-03T09:02:12;19.80;69.70
8002;DHT22;4046;48.774;8.732;2023-03-03T09:04:39;19.80;69.80
8002;DHT22;4046;48.774;8.732;2023-03-03T09:07:05;19.90;69.80
8002;DHT22;4046;48.774;8.732;2023-03-03T09:09:31;19.90;70.50
8002;DHT22;4046;48.774;8.732;2023-03-03T09:12:15;19.90;69.70
8002;DHT22;4046;48.774;8.732;2023-03-03T09:14:42;20.00;69.70
8002;DHT22;4046;48.774;8.732;2023-03-03T09:17:23;20.00;69.60
8002;DHT22;4046;48.774;8.732;2023-03-03T09:19:53;20.10;69.70
8002;DHT22;4046;48.774;8.732;2023-03-03T09:22:24;20.10;69.60
8002;DHT22;4046;48.774;8.732;2023-03-03T09:24:53;20.10;69.60
8002;DHT22;4046;48.774;8.732;2023-03-03T09:27:29;20.10;69.70
8002;DHT22;4046;48.774;8.732;2023-03-03T09:32:55;20.30;69.50
8002;DHT22;4046;48.774;8.732;2023-03-03T09:35:37;20.30;69.40
8002;DHT22;4046;48.774;8.732;2023-03-03T09:38:32;20.40;69.30
8002;DHT22;4046;48.774;8.732;2023-03-03T09:54:42;21.10;68.90
8002;DHT22;4046;48.774;8.732;2023-03-03T09:57:19;21.30;68.80
8002;DHT22;4046;48.774;8.732;2023-03-03T10:00:14;21.50;68.50
8002;DHT22;4046;48.774;8.732;2023-03-03T10:05:53;22.70;67.60
8002;DHT22;4046;48.774;8.732;2023-03-03T10:08:55;23.80;67.30
8002;DHT22;4046;48.774;8.732;2023-03-03T10:11:44;24.50;66.70
8002;DHT22;4046;48.774;8.732;2023-03-03T10:17:20;25.30;65.60
8002;DHT22;4046;48.774;8.732;2023-03-03T10:19:58;25.60;65.30
8002;DHT22;4046;48.774;8.732;2023-03-03T10:30:35;25.50;64.70
8002;DHT22;4046;48.774;8.732;2023-03-03T10:42:09;23.60;65.40
8002;DHT22;4046;48.774;8.732;2023-03-03T10:44:56;23.60;65.40
8002;DHT22;4046;48.774;8.732;2023-03-03T10:47:53;23.50;65.70
8002;DHT22;4046;48.774;8.732;2023-03-03T10:53:35;23.30;65.90
8002;DHT22;4046;48.774;8.732;2023-03-03T10:56:21;23.10;66.00
8002;DHT22;4046;48.774;8.732;2023-03-03T10:59:08;23.00;66.30
8002;DHT22;4046;48.774;8.732;2023-03-03T11:01:55;22.80;66.50
8002;DHT22;4046;48.774;8.732;2023-03-03T11:04:56;22.70;66.60
8002;DHT22;4046;48.774;8.732;2023-03-03T11:07:32;22.70;66.70
8002;DHT22;4046;48.774;8.732;2023-03-03T11:12:57;22.60;66.80
8002;DHT22;4046;48.774;8.732;2023-03-03T11:15:54;22.50;66.90
8002;DHT22;4046;48.774;8.732;2023-03-03T11:18:42;22.40;67.10
8002;DHT22;4046;48.774;8.732;2023-03-03T11:32:52;22.00;67.20
8002;DHT22;4046;48.774;8.732;2023-03-03T11:35:21;21.90;67.30
8002;DHT22;4046;48.774;8.732;2023-03-03T11:37:56;21.80;67.40
8002;DHT22;4046;48.774;8.732;2023-03-03T11:40:47;21.70;67.50
8002;DHT22;4046;48.774;8.732;2023-03-03T11:43:37;21.60;67.50
8002;DHT22;4046;48.774;8.732;2023-03-03T11:46:08;21.50;67.60
8002;DHT22;4046;48.774;8.732;2023-03-03T11:54:31;21.10;67.70
8002;DHT22;4046;48.774;8.732;2023-03-03T11:57:15;21.00;68.10
8002;DHT22;4046;48.774;8.732;2023-03-03T11:59:57;20.90;68.30
8002;DHT22;4046;48.774;8.732;2023-03-03T12:02:31;20.80;68.50
8002;DHT22;4046;48.774;8.732;2023-03-03T12:05:28;20.80;68.60
8002;DHT22;4046;48.774;8.732;2023-03-03T12:08:01;20.80;68.80
8002;DHT22;4046;48.774;8.732;2023-03-03T12:13:39;20.80;68.60
8002;DHT22;4046;48.774;8.732;2023-03-03T12:24:44;20.80;68.30
8002;DHT22;4046;48.774;8.732;2023-03-03T12:30:25;20.80;68.40
8002;DHT22;4046;48.774;8.732;2023-03-03T12:33:12;20.80;68.30
8002;DHT22;4046;48.774;8.732;2023-03-03T12:36:00;20.80;68.30
8002;DHT22;4046;48.774;8.732;2023-03-03T12:38:49;20.80;68.30
8002;DHT22;4046;48.774;8.732;2023-03-03T12:41:44;20.80;68.30
8002;DHT22;4046;48.774;8.732;2023-03-03T12:47:08;20.70;68.30
8002;DHT22;4046;48.774;8.732;2023-03-03T12:52:32;20.60;68.30
8002;DHT22;4046;48.774;8.732;2023-03-03T12:55:17;20.70;68.40
8002;DHT22;4046;48.774;8.732;2023-03-03T13:00:45;20.60;68.40
8002;DHT22;4046;48.774;8.732;2023-03-03T13:06:27;20.60;68.40
8002;DHT22;4046;48.774;8.732;2023-03-03T13:17:43;20.60;68.40
8002;DHT22;4046;48.774;8.732;2023-03-03T13:26:25;20.60;68.30
8002;DHT22;4046;48.774;8.732;2023-03-03T13:29:07;20.60;68.40
8002;DHT22;4046;48.774;8.732;2023-03-03T13:31:45;20.60;68.40
8002;DHT22;4046;48.774;8.732;2023-03-03T13:34:36;20.60;68.30
8002;DHT22;4046;48.774;8.732;2023-03-03T13:37:22;20.60;68.40
8002;DHT22;4046;48.774;8.732;2023-03-03T13:40:01;20.50;68.30
8002;DHT22;4046;48.774;8.732;2023-03-03T13:42:40;20.50;68.30
8002;DHT22;4046;48.774;8.732;2023-03-03T13:45:29;20.50;68.30
8002;DHT22;4046;48.774;8.732;2023-03-03T13:48:32;20.50;68.40
8002;DHT22;4046;48.774;8.732;2023-03-03T13:51:22;20.50;68.50
8002;DHT22;4046;48.774;8.732;2023-03-03T13:53:58;20.50;68.50
8002;DHT22;4046;48.774;8.732;2023-03-03T13:57:01;20.50;68.60
8002;DHT22;4046;48.774;8.732;2023-03-03T13:59:54;20.50;68.60
8002;DHT22;4046;48.774;8.732;2023-03-03T14:05:01;20.40;68.50
8002;DHT22;4046;48.774;8.732;2023-03-03T14:07:48;20.40;68.50
8002;DHT22;4046;48.774;8.732;2023-03-03T14:10:29;20.40;68.50
8002;DHT22;4046;48.774;8.732;2023-03-03T14:13:10;20.40;68.50
8002;DHT22;4046;48.774;8.732;2023-03-03T14:15:47;20.40;68.50
8002;DHT22;4046;48.774;8.732;2023-03-03T14:18:35;20.40;68.60
8002;DHT22;4046;48.774;8.732;2023-03-03T14:21:18;20.40;68.50
8002;DHT22;4046;48.774;8.732;2023-03-03T14:26:24;20.40;68.60
8002;DHT22;4046;48.774;8.732;2023-03-03T14:29:12;20.40;68.60
8002;DHT22;4046;48.774;8.732;2023-03-03T14:31:42;20.40;68.60
8002;DHT22;4046;48.774;8.732;2023-03-03T14:34:25;20.40;68.60
8002;DHT22;4046;48.774;8.732;2023-03-03T14:40:11;20.30;68.50
8002;DHT22;4046;48.774;8.732;2023-03-03T14:47:46;20.30;68.70
8002;DHT22;4046;48.774;8.732;2023-03-03T14:50:35;20.30;68.80
8002;DHT22;4046;48.774;8.732;2023-03-03T14:56:28;20.20;68.70
8002;DHT22;4046;48.774;8.732;2023-03-03T14:59:22;20.20;68.70
8002;DHT22;4046;48.774;8.732;2023-03-03T15:02:09;20.20;68.70
8002;DHT22;4046;48.774;8.732;2023-03-03T15:04:47;20.20;69.50
8002;DHT22;4046;48.774;8.732;2023-03-03T15:07:34;20.20;68.90
8002;DHT22;4046;48.774;8.732;2023-03-03T15:10:03;20.20;68.90
8002;DHT22;4046;48.774;8.732;2023-03-03T15:23:32;20.10;68.90
8002;DHT22;4046;48.774;8.732;2023-03-03T15:26:07;20.10;68.80
8002;DHT22;4046;48.774;8.732;2023-03-03T15:28:53;20.10;68.90
8002;DHT22;4046;48.774;8.732;2023-03-03T15:31:33;20.10;68.90
8002;DHT22;4046;48.774;8.732;2023-03-03T15:37:20;20.10;69.00
8002;DHT22;4046;48.774;8.732;2023-03-03T15:39:57;20.10;69.00
8002;DHT22;4046;48.774;8.732;2023-03-03T15:42:56;20.10;69.00
8002;DHT22;4046;48.774;8.732;2023-03-03T15:45:52;20.10;69.00
8002;DHT22;4046;48.774;8.732;2023-03-03T15:48:46;20.10;69.00
8002;DHT22;4046;48.774;8.732;2023-03-03T15:54:35;20.20;69.00
8002;DHT22;4046;48.774;8.732;2023-03-03T15:57:09;20.30;69.10
8002;DHT22;4046;48.774;8.732;2023-03-03T16:02:53;20.30;69.00
8002;DHT22;4046;48.774;8.732;2023-03-03T16:05:33;20.30;68.90
8002;DHT22;4046;48.774;8.732;2023-03-03T16:08:08;20.40;69.00
8002;DHT22;4046;48.774;8.732;2023-03-03T16:11:06;20.40;69.00
8002;DHT22;4046;48.774;8.732;2023-03-03T16:13:46;20.40;69.10
8002;DHT22;4046;48.774;8.732;2023-03-03T16:16:18;20.40;69.00
8002;DHT22;4046;48.774;8.732;2023-03-03T16:21:27;20.40;69.00
8002;DHT22;4046;48.774;8.732;2023-03-03T16:23:59;20.40;69.00
8002;DHT22;4046;48.774;8.732;2023-03-03T16:29:34;20.40;69.00
8002;DHT22;4046;48.774;8.732;2023-03-03T16:32:19;20.50;69.10
8002;DHT22;4046;48.774;8.732;2023-03-03T16:35:21;20.40;69.00
8002;DHT22;4046;48.774;8.732;2023-03-03T16:37:55;20.40;69.00
8002;DHT22;4046;48.774;8.732;2023-03-03T16:51:58;20.40;69.10
8002;DHT22;4046;48.774;8.732;2023-03-03T16:59:46;20.40;69.20
8002;DHT22;4046;48.774;8.732;2023-03-03T17:02:31;20.40;69.10
8002;DHT22;4046;48.774;8.732;2023-03-03T17:11:18;20.30;69.10
8002;DHT22;4046;48.774;8.732;2023-03-03T17:14:20;20.30;69.10
8002;DHT22;4046;48.774;8.732;2023-03-03T17:19:48;20.40;69.30
8002;DHT22;4046;48.774;8.732;2023-03-03T17:25:22;20.30;69.30
8002;DHT22;4046;48.774;8.732;2023-03-03T17:33:58;20.30;69.30
8002;DHT22;4046;48.774;8.732;2023-03-03T17:36:42;20.30;69.30
8002;DHT22;4046;48.774;8.732;2023-03-03T17:39:43;20.30;69.30
8002;DHT22;4046;48.774;8.732;2023-03-03T17:42:35;20.30;69.40
8002;DHT22;4046;48.774;8.732;2023-03-03T17:45:11;20.30;69.30
8002;DHT22;4046;48.774;8.732;2023-03-03T17:47:45;20.30;69.30
8002;DHT22;4046;48.774;8.732;2023-03-03T17:53:32;20.30;69.30
8002;DHT22;4046;48.774;8.732;2023-03-03T17:57:09;20.30;69.30
8002;DHT22;4046;48.774;8.732;2023-03-03T18:07:45;20.30;69.40
8002;DHT22;4046;48.774;8.732;2023-03-03T18:22:05;20.30;69.30
8002;DHT22;4046;48.774;8.732;2023-03-03T18:24:29;20.30;69.40
8002;DHT22;4046;48.774;8.732;2023-03-03T18:30:23;20.30;69.40
8002;DHT22;4046;48.774;8.732;2023-03-03T18:41:00;20.40;69.40
8002;DHT22;4046;48.774;8.732;2023-03-03T18:46:09;20.40;69.40
8002;DHT22;4046;48.774;8.732;2023-03-03T18:48:54;20.40;69.40
8002;DHT22;4046;48.774;8.732;2023-03-03T19:04:50;20.40;69.40
8002;DHT22;4046;48.774;8.732;2023-03-03T19:10:00;20.40;69.50
8002;DHT22;4046;48.774;8.732;2023-03-03T19:18:21;20.40;69.40
8002;DHT22;4046;48.774;8.732;2023-03-03T19:23:21;20.40;69.40
8002;DHT22;4046;48.774;8.732;2023-03-03T19:29:17;20.30;69.30
8002;DHT22;4046;48.774;8.732;2023-03-03T19:42:51;20.30;69.40
8002;DHT22;4046;48.774;8.732;2023-03-03T19:48:52;20.30;69.30
8002;DHT22;4046;48.774;8.732;2023-03-03T19:51:39;20.40;69.40
8002;DHT22;4046;48.774;8.732;2023-03-03T19:54:38;20.30;69.30
8002;DHT22;4046;48.774;8.732;2023-03-03T19:57:18;20.40;69.50
8002;DHT22;4046;48.774;8.732;2023-03-03T20:00:00;20.30;69.40
8002;DHT22;4046;48.774;8.732;2023-03-03T20:02:54;20.40;69.40
8002;DHT22;4046;48.774;8.732;2023-03-03T20:05:33;20.40;69.40
8002;DHT22;4046;48.774;8.732;2023-03-03T20:08:27;20.40;69.40
8002;DHT22;4046;48.774;8.732;2023-03-03T20:13:50;20.40;69.40
8002;DHT22;4046;48.774;8.732;2023-03-03T20:16:38;20.40;69.40
8002;DHT22;4046;48.774;8.732;2023-03-03T20:22:17;20.30;69.30
8002;DHT22;4046;48.774;8.732;2023-03-03T20:28:00;20.40;69.40
8002;DHT22;4046;48.774;8.732;2023-03-03T20:33:35;20.40;69.40
8002;DHT22;4046;48.774;8.732;2023-03-03T20:36:19;20.30;69.20
8002;DHT22;4046;48.774;8.732;2023-03-03T20:39:17;20.30;69.30
8002;DHT22;4046;48.774;8.732;2023-03-03T20:47:27;20.40;69.40
8002;DHT22;4046;48.774;8.732;2023-03-03T20:50:16;20.30;69.30
8002;DHT22;4046;48.774;8.732;2023-03-03T20:58:12;20.30;69.30
8002;DHT22;4046;48.774;8.732;2023-03-03T21:00:51;20.30;69.20
8002;DHT22;4046;48.774;8.732;2023-03-03T21:03:31;20.40;69.30
8002;DHT22;4046;48.774;8.732;2023-03-03T21:06:02;20.30;69.20
8002;DHT22;4046;48.774;8.732;2023-03-03T21:08:49;20.30;69.20
8002;DHT22;4046;48.774;8.732;2023-03-03T21:11:21;20.30;69.20
8002;DHT22;4046;48.774;8.732;2023-03-03T21:13:50;20.30;69.20
8002;DHT22;4046;48.774;8.732;2023-03-03T21:19:03;20.40;69.30
8002;DHT22;4046;48.774;8.732;2023-03-03T21:21:33;20.40;69.30
8002;DHT22;4046;48.774;8.732;2023-03-03T21:23:59;20.30;69.20
8002;DHT22;4046;48.774;8.732;2023-03-03T21:26:53;20.30;69.20
8002;DHT22;4046;48.774;8.732;2023-03-03T21:29:25;20.30;69.10
8002;DHT22;4046;48.774;8.732;2023-03-03T21:31:53;20.30;69.10
8002;DHT22;4046;48.774;8.732;2023-03-03T21:34:26;20.30;69.10
8002;DHT22;4046;48.774;8.732;2023-03-03T21:36:54;20.40;69.30
8002;DHT22;4046;48.774;8.732;2023-03-03T21:39:35;20.30;69.10
8002;DHT22;4046;48.774;8.732;2023-03-03T21:44:40;20.40;69.20
8002;DHT22;4046;48.774;8.732;2023-03-03T21:47:13;20.40;69.20
8002;DHT22;4046;48.774;8.732;2023-03-03T21:49:41;20.40;69.20
8002;DHT22;4046;48.774;8.732;2023-03-03T21:52:08;20.40;69.20
8002;DHT22;4046;48.774;8.732;2023-03-03T21:54:34;20.40;69.20
8002;DHT22;4046;48.774;8.732;2023-03-03T21:57:00;20.40;69.20
8002;DHT22;4046;48.774;8.732;2023-03-03T21:59:26;20.40;69.20
8002;DHT22;4046;48.774;8.732;2023-03-03T22:01:53;20.40;69.10
8002;DHT22;4046;48.774;8.732;2023-03-03T22:04:19;20.30;69.10
8002;DHT22;4046;48.774;8.732;2023-03-03T22:06:45;20.40;69.20